»·PEaware :: UAL1866 KDEN-KPHX

UAL1866 :: KDEN-KPHX

FLIGHT INFORMATION

Flight Status: Arrived
Operator:
United Airlines
More flights by this operator :: More flights under this callsign
Pilot: Anonymous 3226 (3226)
Aircraft: BOEING 737-900
(B739)
More flights by this aircraft type
Origin: KDEN Denver Intl
United States
Destination: KPHX Phoenix Sky Harbor Intl
United States
More flights between these airports :: More routes between these airports
Route: SMMUR2 DAAYE GUP EAGUL6
File this flight plan on PilotEdge
Remarks: RMK / SIMBRIEF
Altitude:
(Current/Filed)
32,000ft
Speed:
(Current/Filed)
440kts
Departed: 31-Aug-23 05:42 PM
Arrived: 31-Aug-23 07:09 PM
Distance/Time
Traveled:
522nm/1:27
Distance/Time
To Go:
Arrived

Flight Plot

Page will automatically refresh every two minutes.

Flight plan parsing failed; only flown route is shown


Map Options




Map Legend


Flown Route
Filed Route
Departure Airport
Arrival Airport
Navaid (VOR, NDB)
Fix

Horizontal Profiles

Position Reports

Time Latitude Longitude Heading Altitude Ground
Speed
31-Aug-23 16:55 39.853272 -104.677658 46 5359ft 0kts
31-Aug-23 16:56 39.853272 -104.677658 46 5359ft 0kts
31-Aug-23 16:57 39.853272 -104.677658 46 5359ft 0kts
31-Aug-23 16:58 39.853272 -104.677658 46 5359ft 0kts
31-Aug-23 16:59 39.853272 -104.677658 46 5356ft 0kts
31-Aug-23 17:00 39.853272 -104.677658 46 5356ft 0kts
31-Aug-23 17:01 39.853272 -104.677658 46 5356ft 0kts
31-Aug-23 17:02 39.853272 -104.677658 46 5356ft 0kts
31-Aug-23 17:03 39.853272 -104.677658 46 5356ft 0kts
31-Aug-23 17:04 39.853272 -104.677658 46 5356ft 0kts
31-Aug-23 17:05 39.853272 -104.677658 46 5356ft 0kts
31-Aug-23 17:06 39.853272 -104.677658 46 5356ft 0kts
31-Aug-23 17:07 39.853272 -104.677658 46 5356ft 0kts
31-Aug-23 17:08 39.853272 -104.677658 46 5365ft 0kts
31-Aug-23 17:09 39.853272 -104.677658 46 5365ft 0kts
31-Aug-23 17:10 39.853272 -104.677658 46 5365ft 0kts
31-Aug-23 17:11 39.853272 -104.677658 46 5365ft 0kts
31-Aug-23 17:12 39.853272 -104.677658 46 5365ft 0kts
31-Aug-23 17:13 39.853272 -104.677658 46 5365ft 0kts
31-Aug-23 17:14 39.853272 -104.677658 46 5365ft 0kts
31-Aug-23 17:15 39.853272 -104.677658 46 5365ft 0kts
31-Aug-23 17:16 39.853272 -104.677658 46 5365ft 0kts
31-Aug-23 17:17 39.853272 -104.677658 46 5365ft 0kts
31-Aug-23 17:18 39.853272 -104.677658 46 5365ft 0kts
31-Aug-23 17:19 39.853272 -104.677658 46 5365ft 0kts
31-Aug-23 17:20 39.853272 -104.677658 46 5365ft 0kts
31-Aug-23 17:21 39.853272 -104.677658 46 5365ft 0kts
31-Aug-23 17:22 39.853272 -104.677658 46 5365ft 0kts
31-Aug-23 17:23 39.853272 -104.677658 46 5365ft 0kts
31-Aug-23 17:24 39.853272 -104.677658 46 5365ft 0kts
31-Aug-23 17:25 39.853272 -104.677658 46 5365ft 0kts
31-Aug-23 17:27 39.853272 -104.677658 46 5365ft 0kts
31-Aug-23 17:28 39.853272 -104.677658 46 5365ft 0kts
31-Aug-23 17:29 39.853127 -104.677858 46 5361ft 2kts
31-Aug-23 17:30 39.852792 -104.678319 46 5360ft 0kts
31-Aug-23 17:31 39.852792 -104.678319 46 5360ft 0kts
31-Aug-23 17:32 39.852792 -104.678319 46 5360ft 0kts
31-Aug-23 17:33 39.852792 -104.678319 46 5360ft 0kts
31-Aug-23 17:34 39.852672 -104.678059 203 5365ft 2kts
31-Aug-23 17:35 39.852820 -104.679658 267 5363ft 7kts
31-Aug-23 17:36 39.853068 -104.682663 271 5364ft 7kts
31-Aug-23 17:37 39.851750 -104.684025 179 5363ft 8kts
31-Aug-23 17:38 39.848486 -104.684070 180 5364ft 17kts
31-Aug-23 17:39 39.844091 -104.684113 180 5362ft 14kts
31-Aug-23 17:40 39.841825 -104.684144 180 5363ft 1kts
31-Aug-23 17:41 39.840633 -104.685420 269 5364ft 0kts
31-Aug-23 17:42 39.840711 -104.696081 270 5365ft 121kts
31-Aug-23 17:43 39.838131 -104.762557 237 6580ft 208kts
31-Aug-23 17:44 39.803544 -104.835520 240 7607ft 263kts
31-Aug-23 17:45 39.754743 -104.912115 193 9514ft 291kts
31-Aug-23 17:46 39.669063 -104.917480 167 10688ft 348kts
31-Aug-23 17:47 39.576898 -104.871929 151 12742ft 364kts
31-Aug-23 17:48 39.483945 -104.818203 182 14723ft 371kts
31-Aug-23 17:49 39.380418 -104.830496 205 16672ft 377kts
31-Aug-23 17:50 39.296920 -104.911592 218 18638ft 382kts
31-Aug-23 17:51 39.211228 -104.995605 219 20391ft 392kts
31-Aug-23 17:51 39.137788 -105.066672 213 21756ft 403kts
31-Aug-23 17:52 39.035959 -105.132264 207 23305ft 415kts
31-Aug-23 17:54 38.913838 -105.209786 208 24769ft 424kts
31-Aug-23 17:55 38.807004 -105.278626 208 25968ft 433kts
31-Aug-23 17:55 38.716440 -105.336789 208 26960ft 441kts
31-Aug-23 17:56 38.606608 -105.407085 208 28471ft 441kts
31-Aug-23 17:57 38.496700 -105.477213 207 30153ft 439kts
31-Aug-23 17:58 38.388014 -105.545895 207 31618ft 437kts
31-Aug-23 18:00 38.260491 -105.624913 207 31928ft 433kts
31-Aug-23 18:00 38.170723 -105.680502 207 31950ft 430kts
31-Aug-23 18:01 38.063326 -105.746843 207 31957ft 430kts
31-Aug-23 18:02 37.967928 -105.834196 227 31941ft 428kts
31-Aug-23 18:03 37.884003 -105.941925 225 31940ft 432kts
31-Aug-23 18:04 37.798797 -106.050035 226 32082ft 434kts
31-Aug-23 18:05 37.713477 -106.158279 225 32211ft 434kts
31-Aug-23 18:06 37.628241 -106.266068 225 32265ft 432kts
31-Aug-23 18:07 37.543588 -106.372752 225 32213ft 430kts
31-Aug-23 18:08 37.459182 -106.478763 225 32143ft 428kts
31-Aug-23 18:09 37.375076 -106.584048 225 32104ft 426kts
31-Aug-23 18:10 37.291028 -106.688892 225 32158ft 425kts
31-Aug-23 18:11 37.206825 -106.793601 225 32178ft 427kts
31-Aug-23 18:12 37.122163 -106.898521 225 32178ft 429kts
31-Aug-23 18:13 37.037012 -107.003693 225 32113ft 431kts
31-Aug-23 18:14 36.951118 -107.109433 224 31999ft 432kts
31-Aug-23 18:15 36.865566 -107.214398 224 31949ft 432kts
31-Aug-23 18:16 36.779875 -107.319184 224 31936ft 430kts
31-Aug-23 18:17 36.694247 -107.423550 224 31926ft 429kts
31-Aug-23 18:18 36.608871 -107.527268 224 31921ft 428kts
31-Aug-23 18:19 36.523716 -107.630382 224 31910ft 427kts
31-Aug-23 18:20 36.438430 -107.733320 224 31910ft 427kts
31-Aug-23 18:21 36.353144 -107.835924 224 31912ft 428kts
31-Aug-23 18:22 36.267625 -107.938479 224 31902ft 428kts
31-Aug-23 18:23 36.181936 -108.040909 224 31888ft 429kts
31-Aug-23 18:24 36.095940 -108.143376 224 31881ft 428kts
31-Aug-23 18:25 36.010012 -108.245435 224 31867ft 428kts
31-Aug-23 18:26 35.924260 -108.346962 224 31877ft 427kts
31-Aug-23 18:27 35.838456 -108.448232 224 31891ft 426kts
31-Aug-23 18:28 35.753144 -108.548607 224 31951ft 424kts
31-Aug-23 18:29 35.667614 -108.648928 224 32083ft 423kts
31-Aug-23 18:30 35.582460 -108.748506 224 32224ft 423kts
31-Aug-23 18:31 35.497362 -108.847733 224 32217ft 421kts
31-Aug-23 18:32 35.415194 -108.950156 227 32143ft 420kts
31-Aug-23 18:33 35.335348 -109.054671 226 32005ft 420kts
31-Aug-23 18:34 35.254994 -109.158428 226 31902ft 419kts
31-Aug-23 18:35 35.174764 -109.261610 226 31886ft 419kts
31-Aug-23 18:36 35.094310 -109.364778 226 31885ft 419kts
31-Aug-23 18:37 35.013745 -109.467775 226 31880ft 419kts
31-Aug-23 18:38 34.933064 -109.570616 226 31872ft 420kts
31-Aug-23 18:39 34.852176 -109.673433 226 31874ft 420kts
31-Aug-23 18:40 34.771617 -109.775933 226 31882ft 420kts
31-Aug-23 18:41 34.696348 -109.883702 247 31954ft 419kts
31-Aug-23 18:42 34.649709 -110.013670 244 32054ft 420kts
31-Aug-23 18:43 34.600975 -110.143268 244 32123ft 421kts
31-Aug-23 18:44 34.552531 -110.272405 244 32114ft 421kts
31-Aug-23 18:45 34.503293 -110.403195 244 30490ft 418kts
31-Aug-23 18:46 34.456075 -110.527973 243 28538ft 401kts
31-Aug-23 18:47 34.409974 -110.649351 243 26553ft 391kts
31-Aug-23 18:48 34.364729 -110.768088 242 24587ft 386kts
31-Aug-23 18:49 34.299166 -110.866994 224 22559ft 377kts
31-Aug-23 18:50 34.228070 -110.958474 224 20682ft 369kts
31-Aug-23 18:51 34.158083 -111.048768 224 18854ft 365kts
31-Aug-23 18:52 34.091085 -111.134920 224 17519ft 347kts
31-Aug-23 18:53 34.026800 -111.217393 224 16101ft 332kts
31-Aug-23 18:54 33.963726 -111.298106 224 14447ft 330kts
31-Aug-23 18:55 33.900707 -111.378619 224 12727ft 327kts
31-Aug-23 18:56 33.833473 -111.445598 212 11460ft 311kts
31-Aug-23 18:57 33.763892 -111.504654 215 10168ft 292kts
31-Aug-23 18:58 33.699252 -111.560188 215 9083ft 277kts
31-Aug-23 18:59 33.639991 -111.610951 215 8497ft 253kts
31-Aug-23 19:00 33.582297 -111.659204 215 7366ft 251kts
31-Aug-23 19:01 33.525306 -111.706771 216 6200ft 245kts
31-Aug-23 19:02 33.471600 -111.753983 222 4999ft 230kts
31-Aug-23 19:03 33.441250 -111.811381 259 3966ft 185kts
31-Aug-23 19:04 33.440988 -111.869739 267 2864ft 162kts
31-Aug-23 19:05 33.441111 -111.923182 266 2176ft 140kts
31-Aug-23 19:06 33.440821 -111.971235 272 1551ft 143kts
31-Aug-23 19:07 33.440858 -112.013830 269 1141ft 50kts
31-Aug-23 19:08 33.439860 -112.016805 124 1137ft 4kts
31-Aug-23 19:09 33.439108 -112.014126 118 1128ft 7kts
31-Aug-23 19:10 33.438997 -112.011606 89 1158ft 7kts
31-Aug-23 19:11 33.439003 -112.008252 89 1157ft 9kts
31-Aug-23 19:12 33.437718 -112.007352 179 1149ft 4kts
31-Aug-23 19:13 33.437039 -112.008143 267 1157ft 0kts
31-Aug-23 19:14 33.437039 -112.008143 267 1157ft 0kts
31-Aug-23 19:15 33.437039 -112.008143 267 1157ft 0kts
31-Aug-23 19:16 33.437039 -112.008143 267 1157ft 0kts

Navigation Log

Ident Type
Flight plan parsing failed, navigation log unavailable